Time;durP1;ratioP1;P1;durP2;ratioP2;P2;SDS_P1;SDS_P2;PMS_P1;PMS_P2;Temp;Humidity;BMP_temperature;BMP_pressure;BME280_temperature;BME280_humidity;BME280_pressure;Samples;Min_cycle;Max_cycle;Signal;HPM_P1;HPM_P2
2019/10/07 00:02:26;;;;;;;2.48;1.91;;;;;;;19.40;55.46;100250.19;;;;-53
2019/10/07 00:05:26;;;;;;;2.05;1.90;;;;;;;19.40;55.47;100257.69;;;;-52
2019/10/07 00:08:26;;;;;;;2.20;2.00;;;;;;;19.40;55.43;100259.47;;;;-52
2019/10/07 00:11:26;;;;;;;2.00;1.90;;;;;;;19.39;55.47;100269.14;;;;-54
2019/10/07 00:14:26;;;;;;;2.27;2.07;;;;;;;19.39;55.40;100275.34;;;;-52
2019/10/07 00:17:26;;;;;;;2.19;1.99;;;;;;;19.38;55.49;100276.63;;;;-52
2019/10/07 00:20:26;;;;;;;2.19;1.99;;;;;;;19.38;55.44;100282.43;;;;-53
2019/10/07 00:23:26;;;;;;;2.17;1.97;;;;;;;19.39;55.47;100286.95;;;;-52
2019/10/07 00:26:26;;;;;;;2.15;1.97;;;;;;;19.38;55.41;100286.17;;;;-53
2019/10/07 00:29:26;;;;;;;1.98;1.88;;;;;;;19.39;55.40;100296.88;;;;-52
2019/10/07 00:32:26;;;;;;;2.23;2.03;;;;;;;19.38;55.39;100297.46;;;;-52
2019/10/07 00:35:26;;;;;;;2.12;1.92;;;;;;;19.39;55.38;100288.19;;;;-52
2019/10/07 00:38:26;;;;;;;2.09;1.92;;;;;;;19.37;55.41;100288.98;;;;-52
2019/10/07 00:41:26;;;;;;;1.90;1.80;;;;;;;19.38;55.39;100299.64;;;;-52
2019/10/07 00:44:26;;;;;;;1.99;1.89;;;;;;;19.38;55.33;100313.38;;;;-53
2019/10/07 00:47:26;;;;;;;1.98;1.88;;;;;;;19.37;55.39;100312.33;;;;-52
2019/10/07 00:50:26;;;;;;;1.91;1.81;;;;;;;19.36;55.42;100307.97;;;;-52
2019/10/07 00:53:26;;;;;;;2.06;1.88;;;;;;;19.36;55.43;100318.55;;;;-52
2019/10/07 00:56:26;;;;;;;2.11;1.91;;;;;;;19.34;55.45;100327.14;;;;-54
2019/10/07 00:59:26;;;;;;;1.89;1.78;;;;;;;19.35;55.46;100339.30;;;;-53
2019/10/07 01:02:26;;;;;;;1.96;1.86;;;;;;;19.34;55.44;100344.45;;;;-53
2019/10/07 01:05:26;;;;;;;2.03;1.91;;;;;;;19.32;55.49;100353.67;;;;-53
2019/10/07 01:08:26;;;;;;;1.90;1.80;;;;;;;19.33;55.47;100358.87;;;;-54
2019/10/07 01:11:26;;;;;;;2.04;1.81;;;;;;;19.35;55.39;100357.39;;;;-53
2019/10/07 01:14:26;;;;;;;1.91;1.81;;;;;;;19.33;55.44;100353.89;;;;-53
2019/10/07 01:17:26;;;;;;;2.05;1.87;;;;;;;19.35;55.36;100358.06;;;;-54
2019/10/07 01:20:26;;;;;;;2.00;1.90;;;;;;;19.33;55.45;100350.88;;;;-53
2019/10/07 01:23:26;;;;;;;1.90;1.80;;;;;;;19.33;55.42;100348.75;;;;-52
2019/10/07 01:26:26;;;;;;;1.87;1.77;;;;;;;19.31;55.47;100353.20;;;;-53
2019/10/07 01:29:26;;;;;;;1.98;1.84;;;;;;;19.34;55.41;100360.86;;;;-52
2019/10/07 01:32:26;;;;;;;1.95;1.85;;;;;;;19.32;55.43;100358.76;;;;-53
2019/10/07 01:35:26;;;;;;;2.15;1.95;;;;;;;19.32;55.39;100359.16;;;;-54
2019/10/07 01:38:26;;;;;;;1.85;1.75;;;;;;;19.32;55.41;100365.80;;;;-53
2019/10/07 01:41:26;;;;;;;2.67;1.80;;;;;;;19.32;55.41;100361.51;;;;-53
2019/10/07 01:44:26;;;;;;;1.91;1.80;;;;;;;19.31;55.42;100359.72;;;;-53
2019/10/07 01:47:26;;;;;;;2.47;1.77;;;;;;;19.29;55.50;100365.44;;;;-52
2019/10/07 01:50:26;;;;;;;1.76;1.66;;;;;;;19.30;55.42;100366.78;;;;-52
2019/10/07 01:53:26;;;;;;;1.90;1.80;;;;;;;19.31;55.40;100363.73;;;;-53
2019/10/07 01:56:26;;;;;;;1.77;1.67;;;;;;;19.31;55.37;100357.89;;;;-53
2019/10/07 01:59:26;;;;;;;1.89;1.79;;;;;;;19.30;55.41;100352.81;;;;-52
2019/10/07 02:02:26;;;;;;;1.87;1.77;;;;;;;19.30;55.45;100356.06;;;;-53
2019/10/07 02:05:26;;;;;;;1.80;1.70;;;;;;;19.30;55.38;100365.11;;;;-52
2019/10/07 02:08:26;;;;;;;1.95;1.85;;;;;;;19.29;55.43;100369.69;;;;-54
2019/10/07 02:11:26;;;;;;;1.93;1.83;;;;;;;19.30;55.41;100375.92;;;;-52
2019/10/07 02:14:26;;;;;;;1.80;1.70;;;;;;;19.29;55.46;100387.88;;;;-53
2019/10/07 02:17:26;;;;;;;1.89;1.79;;;;;;;19.29;55.45;100393.69;;;;-53
2019/10/07 02:24:26;;;;;;;1.80;1.70;;;;;;;19.28;55.45;100413.50;;;;-53
2019/10/07 02:27:26;;;;;;;1.89;1.79;;;;;;;19.27;55.47;100418.75;;;;-52
2019/10/07 02:30:26;;;;;;;1.80;1.70;;;;;;;19.28;55.47;100427.14;;;;-54
2019/10/07 02:33:26;;;;;;;1.86;1.75;;;;;;;19.28;55.45;100435.55;;;;-52
2019/10/07 02:36:26;;;;;;;1.83;1.73;;;;;;;19.28;55.45;100450.24;;;;-53
2019/10/07 02:39:26;;;;;;;1.91;1.81;;;;;;;19.27;55.48;100456.99;;;;-54
2019/10/07 02:42:26;;;;;;;1.84;1.74;;;;;;;19.27;55.50;100460.51;;;;-52
2019/10/07 02:45:26;;;;;;;2.33;1.72;;;;;;;19.27;55.46;100474.41;;;;-52
2019/10/07 02:48:26;;;;;;;1.81;1.71;;;;;;;19.26;55.43;100476.14;;;;-53
2019/10/07 02:51:26;;;;;;;1.80;1.70;;;;;;;19.26;55.43;100476.97;;;;-53
2019/10/07 02:54:26;;;;;;;1.97;1.87;;;;;;;19.26;55.44;100486.02;;;;-52
2019/10/07 02:57:26;;;;;;;1.91;1.81;;;;;;;19.27;55.39;100486.62;;;;-52
2019/10/07 03:00:26;;;;;;;1.80;1.70;;;;;;;19.26;55.42;100484.91;;;;-53
2019/10/07 03:03:26;;;;;;;1.89;1.79;;;;;;;19.24;55.43;100480.58;;;;-52
2019/10/07 03:06:26;;;;;;;1.89;1.79;;;;;;;19.25;55.39;100472.08;;;;-52
2019/10/07 03:09:26;;;;;;;1.80;1.70;;;;;;;19.25;55.38;100472.98;;;;-54
2019/10/07 03:12:26;;;;;;;2.03;1.93;;;;;;;19.25;55.41;100482.30;;;;-52
2019/10/07 03:15:26;;;;;;;1.95;1.80;;;;;;;19.26;55.40;100479.88;;;;-53
2019/10/07 03:18:26;;;;;;;1.88;1.78;;;;;;;19.24;55.42;100478.73;;;;-52
2019/10/07 03:21:26;;;;;;;1.91;1.78;;;;;;;19.24;55.45;100475.61;;;;-52
2019/10/07 03:24:26;;;;;;;1.91;1.81;;;;;;;19.24;55.39;100467.68;;;;-54
2019/10/07 03:27:26;;;;;;;1.71;1.61;;;;;;;19.24;55.42;100462.88;;;;-54
2019/10/07 03:32:26;;;;;;;1.90;1.80;;;;;;;19.23;55.42;100464.45;;;;-52
2019/10/07 03:35:26;;;;;;;1.70;1.60;;;;;;;19.22;55.44;100466.42;;;;-53
2019/10/07 03:38:26;;;;;;;1.89;1.79;;;;;;;19.23;55.44;100477.73;;;;-52
2019/10/07 03:41:26;;;;;;;1.88;1.61;;;;;;;19.23;55.41;100473.83;;;;-53
2019/10/07 03:44:26;;;;;;;1.79;1.69;;;;;;;19.22;55.44;100474.29;;;;-52
2019/10/07 03:47:26;;;;;;;1.80;1.70;;;;;;;19.23;55.43;100479.02;;;;-53
2019/10/07 03:53:26;;;;;;;1.87;1.77;;;;;;;19.22;55.39;100480.65;;;;-52
2019/10/07 03:56:26;;;;;;;1.79;1.69;;;;;;;19.22;55.44;100478.54;;;;-53
2019/10/07 04:01:26;;;;;;;1.81;1.71;;;;;;;19.21;55.44;100473.06;;;;-53
2019/10/07 04:04:26;;;;;;;1.74;1.64;;;;;;;19.21;55.44;100469.38;;;;-52
2019/10/07 04:07:26;;;;;;;1.77;1.67;;;;;;;19.23;55.36;100467.64;;;;-53
2019/10/07 04:10:26;;;;;;;1.80;1.70;;;;;;;19.22;55.41;100477.30;;;;-52
2019/10/07 04:13:26;;;;;;;1.94;1.60;;;;;;;19.22;55.36;100477.87;;;;-52
2019/10/07 04:16:27;;;;;;;1.71;1.61;;;;;;;19.21;55.43;100481.61;;;;-53
2019/10/07 04:25:52;;;;;;;1.64;1.54;;;;;;;19.22;55.42;100511.18;;;;-52
2019/10/07 04:28:52;;;;;;;1.70;1.60;;;;;;;19.21;55.40;100522.02;;;;-52
2019/10/07 04:31:52;;;;;;;1.57;1.47;;;;;;;19.20;55.49;100530.28;;;;-52
2019/10/07 04:34:52;;;;;;;1.63;1.53;;;;;;;19.20;55.42;100544.51;;;;-52
2019/10/07 04:37:52;;;;;;;1.64;1.51;;;;;;;19.21;55.39;100548.58;;;;-53
2019/10/07 04:40:52;;;;;;;1.71;1.61;;;;;;;19.20;55.41;100556.96;;;;-54
2019/10/07 04:43:52;;;;;;;1.77;1.67;;;;;;;19.20;55.41;100563.77;;;;-53
2019/10/07 04:46:52;;;;;;;1.60;1.50;;;;;;;19.20;55.42;100568.34;;;;-52
2019/10/07 04:49:52;;;;;;;1.69;1.59;;;;;;;19.20;55.40;100570.02;;;;-53
2019/10/07 04:52:52;;;;;;;1.60;1.50;;;;;;;19.18;55.48;100570.97;;;;-52
2019/10/07 04:55:52;;;;;;;1.70;1.60;;;;;;;19.19;55.42;100577.11;;;;-52
2019/10/07 04:58:52;;;;;;;1.65;1.55;;;;;;;19.19;55.40;100576.95;;;;-53
2019/10/07 05:01:52;;;;;;;1.62;1.52;;;;;;;19.19;55.41;100575.37;;;;-52
2019/10/07 05:04:52;;;;;;;1.70;1.60;;;;;;;19.18;55.40;100578.91;;;;-52
2019/10/07 05:07:52;;;;;;;1.59;1.49;;;;;;;19.20;55.44;100585.19;;;;-52
2019/10/07 05:10:52;;;;;;;1.51;1.41;;;;;;;19.18;55.39;100588.55;;;;-52
2019/10/07 05:13:52;;;;;;;1.58;1.48;;;;;;;19.20;55.37;100597.25;;;;-52
2019/10/07 05:16:52;;;;;;;1.69;1.59;;;;;;;19.19;55.41;100603.05;;;;-53
2019/10/07 05:19:52;;;;;;;1.68;1.58;;;;;;;19.19;55.41;100605.41;;;;-52
2019/10/07 05:22:52;;;;;;;1.50;1.40;;;;;;;19.19;55.40;100611.09;;;;-52
2019/10/07 05:25:52;;;;;;;1.59;1.49;;;;;;;19.20;55.42;100627.28;;;;-53
2019/10/07 05:28:52;;;;;;;1.59;1.49;;;;;;;19.19;55.40;100634.88;;;;-52
2019/10/07 05:31:52;;;;;;;1.57;1.47;;;;;;;19.19;55.37;100628.84;;;;-53
2019/10/07 05:34:52;;;;;;;1.51;1.41;;;;;;;19.20;55.39;100628.45;;;;-52
2019/10/07 05:37:52;;;;;;;1.59;1.49;;;;;;;19.19;55.36;100634.43;;;;-52
2019/10/07 05:40:52;;;;;;;1.63;1.50;;;;;;;19.20;55.35;100627.28;;;;-52
2019/10/07 05:43:52;;;;;;;1.62;1.52;;;;;;;19.20;55.37;100621.76;;;;-53
2019/10/07 05:46:52;;;;;;;1.60;1.50;;;;;;;19.20;55.39;100617.51;;;;-53
2019/10/07 05:49:53;;;;;;;1.51;1.41;;;;;;;19.19;55.37;100614.55;;;;-52
2019/10/07 05:52:52;;;;;;;1.70;1.60;;;;;;;19.19;55.36;100614.72;;;;-53
2019/10/07 05:55:52;;;;;;;1.53;1.43;;;;;;;19.19;55.35;100617.56;;;;-52
2019/10/07 05:58:55;;;;;;;1.50;1.40;;;;;;;19.20;55.33;100634.31;;;;-52
2019/10/07 06:01:56;;;;;;;1.41;1.31;;;;;;;19.19;55.39;100643.17;;;;-52
2019/10/07 06:04:52;;;;;;;1.61;1.51;;;;;;;19.18;55.42;100632.88;;;;-52
2019/10/07 06:07:52;;;;;;;1.59;1.49;;;;;;;19.19;55.35;100626.50;;;;-53
2019/10/07 06:10:52;;;;;;;1.60;1.50;;;;;;;19.19;55.35;100635.14;;;;-52
2019/10/07 06:13:52;;;;;;;1.61;1.51;;;;;;;19.20;55.35;100640.17;;;;-53
2019/10/07 06:16:52;;;;;;;1.60;1.50;;;;;;;19.21;55.31;100650.70;;;;-52
2019/10/07 06:19:52;;;;;;;1.48;1.38;;;;;;;19.20;55.26;100646.98;;;;-52
2019/10/07 06:22:52;;;;;;;1.60;1.50;;;;;;;19.19;55.33;100645.81;;;;-53
2019/10/07 06:25:52;;;;;;;2.83;1.40;;;;;;;19.21;55.36;100650.09;;;;-49
2019/10/07 06:28:51;;;;;;;2.81;1.42;;;;;;;19.21;55.44;100660.91;;;;-49
2019/10/07 06:31:52;;;;;;;1.50;1.40;;;;;;;19.21;55.38;100660.75;;;;-50
2019/10/07 06:34:52;;;;;;;1.60;1.50;;;;;;;19.23;55.36;100665.43;;;;-50
2019/10/07 06:37:52;;;;;;;1.63;1.53;;;;;;;19.26;55.30;100678.47;;;;-49
2019/10/07 06:40:52;;;;;;;1.54;1.44;;;;;;;19.29;55.26;100683.14;;;;-49
2019/10/07 06:43:52;;;;;;;1.50;1.40;;;;;;;19.31;55.17;100682.23;;;;-49
2019/10/07 06:46:52;;;;;;;1.57;1.35;;;;;;;19.35;55.21;100683.38;;;;-49
2019/10/07 06:49:51;;;;;;;1.49;1.39;;;;;;;19.39;55.31;100678.05;;;;-49
2019/10/07 06:52:51;;;;;;;2.58;1.40;;;;;;;19.44;55.29;100677.34;;;;-50
2019/10/07 06:55:52;;;;;;;1.40;1.30;;;;;;;19.47;55.39;100678.38;;;;-49
2019/10/07 06:58:51;;;;;;;1.53;1.40;;;;;;;19.51;55.43;100680.02;;;;-49
2019/10/07 07:01:52;;;;;;;1.43;1.33;;;;;;;19.55;55.48;100684.37;;;;-50
2019/10/07 07:04:52;;;;;;;1.41;1.31;;;;;;;19.59;55.57;100695.20;;;;-49
2019/10/07 07:07:52;;;;;;;1.50;1.40;;;;;;;19.63;55.60;100702.66;;;;-49
2019/10/07 07:10:51;;;;;;;1.60;1.31;;;;;;;19.66;55.62;100693.88;;;;-50
2019/10/07 07:13:51;;;;;;;1.47;1.30;;;;;;;19.70;55.66;100708.43;;;;-52
2019/10/07 07:16:52;;;;;;;1.49;1.39;;;;;;;19.73;55.63;100721.14;;;;-52
2019/10/07 07:19:52;;;;;;;1.40;1.30;;;;;;;19.76;55.66;100725.98;;;;-52
2019/10/07 07:22:52;;;;;;;1.41;1.31;;;;;;;19.80;55.69;100728.13;;;;-52
2019/10/07 07:25:52;;;;;;;1.48;1.38;;;;;;;19.83;55.64;100731.28;;;;-52
2019/10/07 07:28:52;;;;;;;1.38;1.28;;;;;;;19.85;55.69;100736.06;;;;-52
2019/10/07 07:31:52;;;;;;;1.30;1.20;;;;;;;19.88;55.69;100744.82;;;;-52
2019/10/07 07:34:51;;;;;;;1.45;1.35;;;;;;;19.92;55.70;100758.38;;;;-52
2019/10/07 07:37:52;;;;;;;1.40;1.30;;;;;;;19.94;55.66;100754.62;;;;-52
2019/10/07 07:40:52;;;;;;;1.41;1.31;;;;;;;19.96;55.28;100746.61;;;;-51
2019/10/07 07:43:52;;;;;;;1.55;1.45;;;;;;;19.97;55.45;100743.19;;;;-51
2019/10/07 07:46:52;;;;;;;1.49;1.30;;;;;;;19.98;55.50;100751.36;;;;-52
2019/10/07 07:49:51;;;;;;;1.44;1.30;;;;;;;19.99;55.51;100760.92;;;;-51
2019/10/07 07:52:54;;;;;;;1.43;1.33;;;;;;;20.01;55.45;100763.47;;;;-50
2019/10/07 07:55:57;;;;;;;1.70;1.35;;;;;;;20.01;55.38;100769.56;;;;-50
2019/10/07 07:58:52;;;;;;;1.43;1.33;;;;;;;20.02;55.40;100777.33;;;;-50
2019/10/07 08:01:52;;;;;;;1.40;1.30;;;;;;;20.02;55.42;100785.08;;;;-50
2019/10/07 08:04:52;;;;;;;1.50;1.40;;;;;;;20.03;55.32;100786.70;;;;-50
2019/10/07 08:07:52;;;;;;;1.48;1.38;;;;;;;20.03;55.28;100784.75;;;;-51
2019/10/07 08:10:52;;;;;;;1.40;1.30;;;;;;;20.02;55.12;100789.52;;;;-51
2019/10/07 08:13:51;;;;;;;4.13;1.50;;;;;;;20.04;55.43;100798.83;;;;-56
2019/10/07 08:16:51;;;;;;;2.75;1.40;;;;;;;20.05;55.51;100802.06;;;;-52
2019/10/07 08:19:52;;;;;;;2.61;1.40;;;;;;;20.07;55.22;100800.98;;;;-51
2019/10/07 08:22:52;;;;;;;1.51;1.40;;;;;;;20.09;55.23;100802.41;;;;-49
2019/10/07 08:25:52;;;;;;;1.35;1.24;;;;;;;20.10;55.13;100793.91;;;;-51
2019/10/07 08:28:52;;;;;;;1.45;1.35;;;;;;;20.11;55.33;100794.80;;;;-49
2019/10/07 08:31:52;;;;;;;1.73;1.30;;;;;;;20.12;55.38;100804.41;;;;-50
2019/10/07 08:34:52;;;;;;;2.52;1.30;;;;;;;20.14;55.48;100805.91;;;;-49
2019/10/07 08:37:51;;;;;;;1.40;1.30;;;;;;;20.14;55.51;100812.87;;;;-54
2019/10/07 08:40:51;;;;;;;13.45;2.37;;;;;;;20.16;55.66;100815.12;;;;-49
2019/10/07 08:43:52;;;;;;;3.97;1.71;;;;;;;20.18;55.72;100824.77;;;;-51
2019/10/07 08:46:52;;;;;;;15.82;2.65;;;;;;;20.19;55.87;100827.77;;;;-51
2019/10/07 08:49:52;;;;;;;3.73;1.64;;;;;;;20.20;55.75;100837.21;;;;-49
2019/10/07 08:52:51;;;;;;;2.03;1.60;;;;;;;20.20;55.63;100845.70;;;;-53
2019/10/07 08:55:51;;;;;;;4.18;1.61;;;;;;;20.22;55.59;100848.94;;;;-48
2019/10/07 08:58:52;;;;;;;4.12;1.60;;;;;;;20.22;55.52;100851.96;;;;-47
2019/10/07 09:01:52;;;;;;;4.64;1.53;;;;;;;20.21;55.46;100848.77;;;;-50
2019/10/07 09:04:51;;;;;;;2.93;1.50;;;;;;;20.22;55.40;100845.69;;;;-54
2019/10/07 09:07:52;;;;;;;1.93;1.48;;;;;;;20.22;55.44;100841.94;;;;-51
2019/10/07 09:10:52;;;;;;;2.98;1.46;;;;;;;20.23;55.46;100843.22;;;;-51
2019/10/07 09:13:51;;;;;;;3.49;1.54;;;;;;;20.24;55.32;100851.59;;;;-50
2019/10/07 09:16:51;;;;;;;5.67;1.79;;;;;;;20.25;55.52;100858.70;;;;-50
2019/10/07 09:19:52;;;;;;;4.60;1.65;;;;;;;20.25;55.44;100857.70;;;;-51
2019/10/07 09:22:51;;;;;;;4.17;1.67;;;;;;;20.25;55.44;100861.56;;;;-51
2019/10/07 09:25:52;;;;;;;4.01;1.65;;;;;;;20.25;55.41;100856.23;;;;-47
2019/10/07 09:28:52;;;;;;;2.87;1.60;;;;;;;20.26;55.42;100859.70;;;;-49
2019/10/07 09:31:52;;;;;;;2.51;1.65;;;;;;;20.26;55.32;100858.59;;;;-48
2019/10/07 09:34:51;;;;;;;8.64;1.80;;;;;;;20.26;55.41;100860.27;;;;-50
2019/10/07 09:37:52;;;;;;;5.66;1.61;;;;;;;20.27;55.63;100862.14;;;;-50
2019/10/07 09:40:52;;;;;;;4.66;1.63;;;;;;;20.29;55.62;100866.42;;;;-47
2019/10/07 09:43:51;;;;;;;3.65;1.50;;;;;;;20.29;55.70;100863.42;;;;-53
2019/10/07 09:46:51;;;;;;;8.36;2.16;;;;;;;20.30;55.50;100861.46;;;;-59
2019/10/07 09:49:52;;;;;;;7.95;2.03;;;;;;;20.31;55.70;100861.28;;;;-51
2019/10/07 09:52:52;;;;;;;7.62;1.76;;;;;;;20.31;55.46;100862.45;;;;-51
2019/10/07 09:55:51;;;;;;;5.19;1.89;;;;;;;20.32;55.37;100853.50;;;;-48
2019/10/07 09:58:51;;;;;;;6.08;2.17;;;;;;;20.32;55.18;100859.75;;;;-56
2019/10/07 10:01:51;;;;;;;5.24;1.85;;;;;;;20.32;55.20;100863.11;;;;-53
2019/10/07 10:04:51;;;;;;;7.18;2.05;;;;;;;20.31;55.22;100857.52;;;;-51
2019/10/07 10:07:52;;;;;;;8.59;2.13;;;;;;;20.31;54.92;100860.21;;;;-51
2019/10/07 10:10:52;;;;;;;4.83;1.99;;;;;;;20.30;55.15;100861.73;;;;-51
2019/10/07 10:13:52;;;;;;;3.09;1.92;;;;;;;20.30;55.02;100862.23;;;;-51
2019/10/07 10:16:51;;;;;;;5.75;1.80;;;;;;;20.29;55.00;100862.25;;;;-51
2019/10/07 10:19:51;;;;;;;5.23;1.69;;;;;;;20.28;54.91;100860.23;;;;-51
2019/10/07 10:22:51;;;;;;;6.10;1.73;;;;;;;20.27;54.94;100853.81;;;;-52
2019/10/07 10:25:51;;;;;;;4.98;1.91;;;;;;;20.27;54.92;100854.72;;;;-51
2019/10/07 10:28:51;;;;;;;5.33;1.70;;;;;;;20.26;54.90;100852.38;;;;-51
2019/10/07 10:31:52;;;;;;;2.81;1.79;;;;;;;20.24;54.86;100850.25;;;;-51
2019/10/07 10:34:52;;;;;;;3.21;1.70;;;;;;;20.24;54.79;100845.84;;;;-51
2019/10/07 10:37:51;;;;;;;3.61;1.80;;;;;;;20.24;54.78;100844.91;;;;-51
2019/10/07 10:40:52;;;;;;;3.08;1.74;;;;;;;20.22;54.80;100851.06;;;;-57
2019/10/07 10:43:51;;;;;;;3.23;1.69;;;;;;;20.21;54.75;100847.39;;;;-57
2019/10/07 10:46:51;;;;;;;4.51;1.79;;;;;;;20.20;54.70;100837.44;;;;-57
2019/10/07 10:49:51;;;;;;;1.81;1.50;;;;;;;20.19;54.73;100837.66;;;;-57
2019/10/07 10:52:52;;;;;;;3.27;1.81;;;;;;;20.18;54.70;100835.71;;;;-57
2019/10/07 10:55:52;;;;;;;7.69;2.01;;;;;;;20.17;54.75;100840.36;;;;-56
2019/10/07 10:58:52;;;;;;;3.83;1.80;;;;;;;20.17;54.75;100840.98;;;;-51
2019/10/07 11:01:51;;;;;;;3.05;1.73;;;;;;;20.15;54.71;100826.91;;;;-51
2019/10/07 11:04:51;;;;;;;2.69;1.61;;;;;;;20.14;54.66;100822.77;;;;-51
2019/10/07 11:07:51;;;;;;;2.99;1.61;;;;;;;20.13;54.73;100816.34;;;;-51
2019/10/07 11:10:51;;;;;;;2.91;1.70;;;;;;;20.12;54.73;100819.16;;;;-51
2019/10/07 11:13:54;;;;;;;1.83;1.60;;;;;;;20.10;54.73;100823.99;;;;-47
2019/10/07 11:16:54;;;;;;;2.96;1.84;;;;;;;20.11;54.78;100823.20;;;;-44
2019/10/07 11:19:51;;;;;;;4.29;1.94;;;;;;;20.10;54.81;100832.04;;;;-48
2019/10/07 11:22:51;;;;;;;3.03;1.71;;;;;;;20.11;54.82;100836.28;;;;-49
2019/10/07 11:25:51;;;;;;;2.41;1.63;;;;;;;20.09;54.88;100838.36;;;;-49
2019/10/07 11:28:51;;;;;;;3.79;1.71;;;;;;;20.07;54.86;100833.84;;;;-49
2019/10/07 11:31:52;;;;;;;3.50;1.89;;;;;;;20.06;54.82;100831.55;;;;-49
2019/10/07 11:34:51;;;;;;;3.43;1.99;;;;;;;20.03;54.88;100829.95;;;;-49
2019/10/07 11:37:52;;;;;;;2.09;1.63;;;;;;;20.02;54.86;100831.59;;;;-49
2019/10/07 11:40:52;;;;;;;2.91;1.77;;;;;;;20.01;54.81;100830.03;;;;-49
2019/10/07 11:43:51;;;;;;;2.11;1.75;;;;;;;20.00;54.84;100828.48;;;;-49
2019/10/07 11:46:51;;;;;;;4.13;1.91;;;;;;;19.99;54.86;100822.49;;;;-49
2019/10/07 11:49:51;;;;;;;3.15;1.86;;;;;;;19.98;54.85;100810.30;;;;-49
2019/10/07 11:52:51;;;;;;;3.07;1.73;;;;;;;19.97;54.83;100811.97;;;;-49
2019/10/07 11:55:51;;;;;;;3.37;1.71;;;;;;;19.95;54.86;100807.68;;;;-49
2019/10/07 11:58:52;;;;;;;2.55;1.77;;;;;;;19.94;54.87;100808.97;;;;-49
2019/10/07 12:01:51;;;;;;;1.73;1.62;;;;;;;19.94;54.91;100806.86;;;;-51
2019/10/07 12:04:51;;;;;;;2.08;1.69;;;;;;;19.93;54.91;100810.22;;;;-52
2019/10/07 12:07:51;;;;;;;3.05;1.93;;;;;;;19.92;54.92;100810.05;;;;-51
2019/10/07 12:10:52;;;;;;;3.42;1.79;;;;;;;19.91;54.96;100810.50;;;;-51
2019/10/07 12:13:51;;;;;;;2.69;1.80;;;;;;;19.90;54.96;100807.09;;;;-51
2019/10/07 12:16:52;;;;;;;2.31;1.77;;;;;;;19.89;54.91;100805.98;;;;-51
2019/10/07 12:19:51;;;;;;;2.02;1.70;;;;;;;19.88;54.97;100812.98;;;;-49
2019/10/07 12:22:51;;;;;;;2.12;1.66;;;;;;;19.87;54.98;100808.06;;;;-49
2019/10/07 12:25:52;;;;;;;2.79;1.80;;;;;;;19.86;54.99;100810.77;;;;-58
2019/10/07 12:28:51;;;;;;;2.05;1.85;;;;;;;19.86;54.99;100816.02;;;;-49
2019/10/07 12:31:51;;;;;;;1.76;1.61;;;;;;;19.85;55.00;100813.22;;;;-49
2019/10/07 12:34:51;;;;;;;2.97;1.73;;;;;;;19.84;55.01;100814.34;;;;-49
2019/10/07 12:37:51;;;;;;;2.45;1.75;;;;;;;19.84;55.02;100813.68;;;;-49
2019/10/07 12:40:51;;;;;;;1.71;1.60;;;;;;;19.83;55.06;100812.80;;;;-49
2019/10/07 12:43:52;;;;;;;1.99;1.80;;;;;;;19.82;55.02;100811.57;;;;-49
2019/10/07 12:46:51;;;;;;;2.11;1.67;;;;;;;19.81;55.05;100812.80;;;;-49
2019/10/07 12:49:51;;;;;;;1.74;1.61;;;;;;;19.80;55.05;100810.98;;;;-49
2019/10/07 12:52:51;;;;;;;2.93;1.61;;;;;;;19.80;55.03;100808.56;;;;-49
2019/10/07 12:55:51;;;;;;;1.73;1.50;;;;;;;19.79;55.04;100807.91;;;;-49
2019/10/07 12:58:51;;;;;;;2.47;1.68;;;;;;;19.78;55.06;100810.31;;;;-49
2019/10/07 13:01:51;;;;;;;1.70;1.60;;;;;;;19.77;55.08;100810.33;;;;-49
2019/10/07 13:04:51;;;;;;;2.73;1.70;;;;;;;19.77;55.08;100815.46;;;;-49
2019/10/07 13:07:52;;;;;;;1.91;1.70;;;;;;;19.76;55.12;100813.56;;;;-49
2019/10/07 13:10:51;;;;;;;1.79;1.48;;;;;;;19.76;55.10;100811.21;;;;-49
2019/10/07 13:13:51;;;;;;;2.54;1.61;;;;;;;19.74;55.13;100803.07;;;;-49
2019/10/07 13:16:51;;;;;;;1.75;1.57;;;;;;;19.74;55.14;100805.48;;;;-49
2019/10/07 13:19:51;;;;;;;2.76;1.72;;;;;;;19.74;55.12;100809.20;;;;-49
2019/10/07 13:22:51;;;;;;;1.87;1.52;;;;;;;19.73;55.16;100813.14;;;;-49
2019/10/07 13:25:51;;;;;;;2.26;1.52;;;;;;;19.72;55.17;100817.11;;;;-49
2019/10/07 13:28:52;;;;;;;1.65;1.55;;;;;;;19.72;55.15;100814.53;;;;-49
2019/10/07 13:31:52;;;;;;;1.71;1.61;;;;;;;19.72;55.12;100816.27;;;;-49
2019/10/07 13:34:51;;;;;;;1.61;1.51;;;;;;;19.71;55.17;100817.30;;;;-49
2019/10/07 13:37:51;;;;;;;2.81;1.57;;;;;;;19.70;55.18;100814.61;;;;-49
2019/10/07 13:40:51;;;;;;;1.79;1.60;;;;;;;19.70;55.17;100812.77;;;;-49
2019/10/07 13:43:51;;;;;;;1.63;1.51;;;;;;;19.69;55.16;100807.34;;;;-49
2019/10/07 13:46:51;;;;;;;2.19;1.66;;;;;;;19.69;55.17;100803.63;;;;-49
2019/10/07 13:49:52;;;;;;;2.01;1.70;;;;;;;19.68;55.21;100808.14;;;;-49
2019/10/07 13:52:51;;;;;;;1.77;1.61;;;;;;;19.69;55.22;100808.81;;;;-49
2019/10/07 13:55:52;;;;;;;1.75;1.65;;;;;;;19.67;55.23;100801.72;;;;-49
2019/10/07 13:58:52;;;;;;;2.17;1.62;;;;;;;19.67;55.22;100800.22;;;;-49
2019/10/07 14:01:51;;;;;;;1.69;1.59;;;;;;;19.66;55.22;100803.28;;;;-49
2019/10/07 14:04:52;;;;;;;1.62;1.52;;;;;;;19.66;55.20;100792.95;;;;-49
2019/10/07 14:07:51;;;;;;;1.62;1.52;;;;;;;19.65;55.21;100788.11;;;;-49
2019/10/07 14:10:51;;;;;;;1.97;1.58;;;;;;;19.64;55.20;100784.48;;;;-49
2019/10/07 14:13:51;;;;;;;1.72;1.62;;;;;;;19.65;55.23;100785.03;;;;-49
2019/10/07 14:16:51;;;;;;;1.79;1.51;;;;;;;19.64;55.21;100784.25;;;;-49
2019/10/07 14:19:51;;;;;;;1.87;1.53;;;;;;;19.64;55.22;100781.30;;;;-49
2019/10/07 14:22:51;;;;;;;1.48;1.38;;;;;;;19.63;55.21;100775.33;;;;-49
2019/10/07 14:25:52;;;;;;;1.51;1.41;;;;;;;19.62;55.23;100772.43;;;;-58
2019/10/07 14:28:51;;;;;;;1.57;1.47;;;;;;;19.62;55.24;100770.25;;;;-58
2019/10/07 14:31:52;;;;;;;1.59;1.49;;;;;;;19.63;55.22;100769.85;;;;-59
2019/10/07 14:34:51;;;;;;;1.70;1.60;;;;;;;19.62;55.24;100771.16;;;;-59
2019/10/07 14:37:51;;;;;;;1.60;1.50;;;;;;;19.62;55.22;100774.56;;;;-58
2019/10/07 14:40:51;;;;;;;1.55;1.44;;;;;;;19.61;55.21;100775.13;;;;-58
2019/10/07 14:43:52;;;;;;;1.83;1.53;;;;;;;19.61;55.24;100773.27;;;;-58
2019/10/07 14:46:51;;;;;;;1.67;1.56;;;;;;;19.61;55.22;100766.81;;;;-59
2019/10/07 14:49:51;;;;;;;1.65;1.55;;;;;;;19.60;55.25;100760.39;;;;-58
2019/10/07 14:52:51;;;;;;;1.74;1.62;;;;;;;19.60;55.25;100756.48;;;;-58
2019/10/07 14:55:51;;;;;;;1.59;1.49;;;;;;;19.59;55.22;100756.43;;;;-58
2019/10/07 14:58:51;;;;;;;1.60;1.47;;;;;;;19.59;55.24;100757.94;;;;-58
2019/10/07 15:01:51;;;;;;;2.44;1.55;;;;;;;19.63;55.31;100761.88;;;;-63
2019/10/07 15:04:51;;;;;;;1.93;1.55;;;;;;;19.60;55.44;100755.37;;;;-58
2019/10/07 15:07:51;;;;;;;2.85;1.50;;;;;;;19.61;55.56;100758.94;;;;-57
2019/10/07 15:10:51;;;;;;;1.70;1.60;;;;;;;19.61;55.67;100758.20;;;;-57
2019/10/07 15:13:51;;;;;;;3.33;1.67;;;;;;;19.61;55.73;100761.72;;;;-58
2019/10/07 15:16:51;;;;;;;2.13;1.61;;;;;;;19.61;55.79;100757.80;;;;-56
2019/10/07 15:19:51;;;;;;;4.88;1.68;;;;;;;19.61;55.87;100758.20;;;;-57
2019/10/07 15:22:51;;;;;;;2.40;1.53;;;;;;;19.62;55.89;100758.52;;;;-58
2019/10/07 15:25:52;;;;;;;1.60;1.50;;;;;;;19.64;55.88;100754.32;;;;-51
2019/10/07 15:28:51;;;;;;;1.93;1.51;;;;;;;19.65;55.91;100761.85;;;;-55
2019/10/07 15:31:51;;;;;;;2.20;1.40;;;;;;;19.66;55.93;100759.72;;;;-44
2019/10/07 15:34:51;;;;;;;1.92;1.53;;;;;;;19.67;55.94;100759.94;;;;-50
2019/10/07 15:37:51;;;;;;;3.71;1.53;;;;;;;19.68;55.93;100759.48;;;;-50
2019/10/07 15:40:52;;;;;;;2.43;1.55;;;;;;;19.69;55.96;100757.59;;;;-54
2019/10/07 15:43:51;;;;;;;1.75;1.50;;;;;;;19.70;55.94;100762.28;;;;-57
2019/10/07 15:46:51;;;;;;;1.74;1.41;;;;;;;19.71;55.97;100760.97;;;;-53
2019/10/07 15:49:51;;;;;;;2.11;1.64;;;;;;;19.72;55.92;100756.95;;;;-61
2019/10/07 15:52:51;;;;;;;2.16;1.48;;;;;;;19.71;55.90;100760.76;;;;-48
2019/10/07 15:55:51;;;;;;;1.60;1.50;;;;;;;19.69;55.94;100759.22;;;;-48
2019/10/07 15:58:51;;;;;;;2.77;1.70;;;;;;;19.70;55.95;100756.92;;;;-48
2019/10/07 16:01:51;;;;;;;1.90;1.47;;;;;;;19.70;55.87;100758.09;;;;-47
2019/10/07 16:04:51;;;;;;;1.65;1.55;;;;;;;19.69;55.89;100758.22;;;;-47
2019/10/07 16:07:51;;;;;;;2.34;1.73;;;;;;;19.68;55.94;100761.83;;;;-47
2019/10/07 16:10:51;;;;;;;2.45;1.83;;;;;;;19.67;55.95;100755.75;;;;-46
2019/10/07 16:13:51;;;;;;;1.80;1.57;;;;;;;19.68;55.93;100748.72;;;;-49
2019/10/07 16:16:51;;;;;;;2.06;1.74;;;;;;;19.68;55.96;100740.61;;;;-50
2019/10/07 16:19:51;;;;;;;2.93;1.67;;;;;;;19.69;55.93;100742.97;;;;-49
2019/10/07 16:22:51;;;;;;;2.56;1.67;;;;;;;19.69;55.95;100742.13;;;;-58
2019/10/07 16:25:51;;;;;;;2.79;1.79;;;;;;;19.69;55.94;100744.75;;;;-58
2019/10/07 16:28:51;;;;;;;1.99;1.70;;;;;;;19.69;55.98;100743.64;;;;-53
2019/10/07 16:31:51;;;;;;;3.49;1.73;;;;;;;19.71;55.89;100744.84;;;;-59
2019/10/07 16:34:51;;;;;;;2.15;1.71;;;;;;;19.70;55.86;100749.38;;;;-59
2019/10/07 16:37:52;;;;;;;2.47;1.78;;;;;;;19.69;55.86;100752.62;;;;-58
2019/10/07 16:40:51;;;;;;;2.29;1.71;;;;;;;19.68;55.87;100756.13;;;;-59
2019/10/07 16:43:51;;;;;;;2.61;1.81;;;;;;;19.67;55.85;100758.22;;;;-58
2019/10/07 16:46:51;;;;;;;2.23;1.75;;;;;;;19.67;55.81;100762.68;;;;-59
2019/10/07 16:49:51;;;;;;;2.70;1.90;;;;;;;19.66;55.80;100756.88;;;;-59
2019/10/07 16:52:52;;;;;;;2.23;1.85;;;;;;;19.66;55.80;100757.77;;;;-59
2019/10/07 16:55:51;;;;;;;2.04;1.80;;;;;;;19.65;55.81;100761.64;;;;-60
2019/10/07 16:58:51;;;;;;;1.81;1.67;;;;;;;19.64;55.79;100758.52;;;;-59
2019/10/07 17:01:52;;;;;;;2.19;1.89;;;;;;;19.65;55.78;100753.20;;;;-58